createdAt,value
2018-02-17T00:00:29.807Z,5.80
2018-02-17T00:02:57.414Z,7.00
2018-02-17T00:05:25.028Z,8.90
2018-02-17T00:07:52.671Z,10.97
2018-02-17T00:10:21.093Z,7.77
2018-02-17T00:12:48.744Z,6.57
2018-02-17T00:15:16.351Z,7.20
2018-02-17T00:17:43.970Z,11.73
2018-02-17T00:20:11.664Z,5.33
2018-02-17T00:22:39.331Z,6.00
2018-02-17T00:25:07.184Z,7.70
2018-02-17T00:27:34.847Z,5.27
2018-02-17T00:30:02.459Z,7.60
2018-02-17T00:32:30.904Z,8.13
2018-02-17T00:34:58.524Z,9.60
2018-02-17T00:37:26.163Z,9.70
2018-02-17T00:39:54.533Z,8.37
2018-02-17T00:42:22.265Z,8.80
2018-02-17T00:44:50.039Z,14.87
2018-02-17T00:47:17.665Z,7.20
2018-02-17T00:49:45.309Z,12.43
2018-02-17T00:52:13.683Z,8.07
2018-02-17T00:54:42.081Z,12.67
2018-02-17T00:57:10.617Z,15.30
2018-02-17T00:59:38.233Z,11.63
2018-02-17T01:02:05.884Z,8.47
2018-02-17T01:04:34.268Z,12.00
2018-02-17T01:07:02.659Z,13.27
2018-02-17T01:09:30.300Z,9.50
2018-02-17T01:11:58.682Z,11.53
2018-02-17T01:14:27.229Z,12.20
2018-02-17T01:16:54.849Z,6.77
2018-02-17T01:19:22.457Z,9.03
2018-02-17T01:21:50.137Z,11.17
2018-02-17T01:24:17.759Z,7.33
2018-02-17T01:26:45.406Z,8.30
2018-02-17T01:29:13.015Z,13.40
2018-02-17T01:31:40.706Z,12.30
2018-02-17T01:34:09.122Z,9.87
2018-02-17T01:36:36.749Z,11.40
2018-02-17T01:39:05.162Z,10.90
2018-02-17T01:41:32.774Z,11.53
2018-02-17T01:44:00.579Z,12.60
2018-02-17T01:46:28.227Z,7.60
2018-02-17T01:48:56.616Z,11.17
2018-02-17T01:51:24.263Z,13.67
2018-02-17T01:53:52.643Z,6.20
2018-02-17T01:56:21.056Z,13.70
2018-02-17T01:58:48.664Z,9.80
2018-02-17T02:01:17.080Z,14.47
2018-02-17T02:03:45.466Z,14.80
2018-02-17T02:06:13.123Z,8.13
2018-02-17T02:08:40.729Z,9.47
2018-02-17T02:11:08.343Z,11.40
2018-02-17T02:13:36.869Z,20.43
2018-02-17T02:16:04.478Z,15.23
2018-02-17T02:18:32.882Z,7.40
2018-02-17T02:21:00.575Z,9.43
2018-02-17T02:23:28.200Z,18.53
2018-02-17T02:25:55.839Z,17.37
2018-02-17T02:28:24.219Z,11.60
2018-02-17T02:30:52.664Z,18.57
2018-02-17T02:33:20.292Z,11.17
2018-02-17T02:35:47.947Z,9.60
2018-02-17T02:38:15.578Z,7.60
2018-02-17T02:40:43.962Z,10.00
2018-02-17T02:43:12.409Z,8.47
2018-02-17T02:45:40.039Z,10.20
2018-02-17T02:48:07.696Z,13.27
2018-02-17T02:50:35.317Z,10.50
2018-02-17T02:53:02.937Z,10.80
2018-02-17T02:55:30.736Z,11.67
2018-02-17T02:57:58.365Z,12.37
2018-02-17T03:00:26.050Z,15.80
2018-02-17T03:02:53.668Z,11.97
2018-02-17T03:05:21.289Z,10.00
2018-02-17T03:07:50.434Z,13.03
2018-02-17T03:10:18.046Z,13.40
2018-02-17T03:12:45.711Z,24.13
2018-02-17T03:15:13.362Z,8.77
2018-02-17T03:17:40.974Z,9.77
2018-02-17T03:20:08.625Z,16.80
2018-02-17T03:22:37.008Z,9.70
2018-02-17T03:25:05.425Z,11.93
2018-02-17T03:27:33.196Z,16.07
2018-02-17T03:30:00.960Z,13.17
2018-02-17T03:32:28.622Z,10.00
2018-02-17T03:34:56.238Z,8.57
2018-02-17T03:37:24.663Z,15.63
2018-02-17T03:39:52.446Z,10.97
2018-02-17T03:42:20.088Z,10.53
2018-02-17T03:44:47.701Z,18.20
2018-02-17T03:47:16.090Z,8.57
2018-02-17T03:49:44.531Z,10.40
2018-02-17T03:52:12.294Z,18.17
2018-02-17T03:54:39.952Z,7.23
2018-02-17T03:57:07.560Z,10.27
2018-02-17T03:59:36.007Z,14.93
2018-02-17T04:02:03.663Z,7.90
2018-02-17T04:04:32.061Z,12.93
2018-02-17T04:07:00.515Z,10.80
2018-02-17T04:09:28.176Z,13.17
2018-02-17T04:11:55.791Z,7.63
2018-02-17T04:14:23.438Z,12.97
2018-02-17T04:16:51.810Z,10.93
2018-02-17T04:19:20.231Z,10.03
2018-02-17T04:21:47.850Z,11.93
2018-02-17T04:24:16.235Z,19.20
2018-02-17T04:26:44.663Z,12.10
2018-02-17T04:29:12.279Z,10.70
2018-02-17T04:31:40.705Z,7.20
2018-02-17T04:34:08.324Z,8.37
2018-02-17T04:36:36.701Z,12.90
2018-02-17T04:39:05.118Z,14.47
2018-02-17T04:41:48.442Z,21.33
2018-02-17T04:44:21.786Z,16.47
2018-02-17T04:46:55.071Z,12.40
2018-02-17T04:49:24.252Z,14.50
2018-02-17T04:55:01.970Z,12.90
2018-02-17T05:00:45.115Z,15.53
2018-02-17T05:03:17.314Z,10.70
2018-02-17T05:05:51.464Z,13.17
2018-02-17T05:08:20.964Z,7.80
2018-02-17T05:10:48.594Z,13.50
2018-02-17T05:13:16.972Z,11.20
2018-02-17T05:18:51.321Z,9.77
2018-02-17T05:21:19.736Z,10.13
2018-02-17T05:26:57.228Z,10.30
2018-02-17T05:29:29.147Z,11.47
2018-02-17T05:31:56.782Z,14.93
2018-02-17T05:34:40.038Z,14.23
2018-02-17T05:37:07.667Z,9.27
2018-02-17T05:39:40.289Z,10.73
2018-02-17T05:42:13.885Z,8.83
2018-02-17T05:44:45.272Z,11.97
2018-02-17T05:47:12.863Z,12.20
2018-02-17T05:49:44.184Z,20.57
2018-02-17T05:52:11.775Z,10.73
2018-02-17T05:54:39.400Z,18.97
2018-02-17T05:57:07.012Z,13.93
2018-02-17T05:59:35.432Z,15.03
2018-02-17T06:02:03.059Z,11.40
2018-02-17T06:04:30.709Z,14.43
2018-02-17T06:06:58.297Z,9.73
2018-02-17T06:09:26.662Z,13.50
2018-02-17T06:11:54.288Z,14.70
2018-02-17T06:14:21.881Z,9.60
2018-02-17T06:16:50.240Z,11.73
2018-02-17T06:19:17.824Z,11.73
2018-02-17T06:21:45.478Z,11.73
2018-02-17T06:24:13.078Z,13.70
2018-02-17T06:26:40.670Z,10.90
2018-02-17T06:29:08.285Z,9.50
2018-02-17T06:31:36.648Z,12.30
2018-02-17T06:34:04.348Z,14.23
2018-02-17T06:36:31.979Z,7.93
2018-02-17T06:39:00.368Z,14.10
2018-02-17T06:41:28.749Z,11.07
2018-02-17T06:43:57.113Z,13.53
2018-02-17T06:46:25.500Z,12.93
2018-02-17T06:48:53.865Z,11.70
2018-02-17T06:51:22.258Z,9.00
2018-02-17T06:53:50.612Z,14.53
2018-02-17T06:56:18.216Z,12.27
2018-02-17T06:58:45.865Z,13.10
2018-02-17T07:01:13.517Z,8.40
2018-02-17T07:03:41.900Z,8.27
2018-02-17T07:06:09.496Z,13.80
2018-02-17T07:08:37.126Z,10.67
2018-02-17T07:11:04.774Z,12.53
2018-02-17T07:13:33.160Z,15.00
2018-02-17T07:16:01.545Z,21.40
2018-02-17T07:18:29.174Z,13.57
2018-02-17T07:20:56.765Z,12.97
2018-02-17T07:23:24.358Z,16.63
2018-02-17T07:25:52.005Z,14.10
2018-02-17T07:28:19.625Z,19.17
2018-02-17T07:30:48.020Z,10.73
2018-02-17T07:33:16.384Z,11.07
2018-02-17T07:35:44.769Z,18.00
2018-02-17T07:38:13.133Z,18.20
2018-02-17T07:40:40.760Z,18.63
2018-02-17T07:43:08.390Z,16.80
2018-02-17T07:45:36.024Z,14.03
2018-02-17T07:48:04.386Z,12.97
2018-02-17T07:50:32.001Z,13.47
2018-02-17T07:52:59.605Z,8.90
2018-02-17T07:55:28.755Z,14.10
2018-02-17T07:57:56.360Z,17.97
2018-02-17T08:00:23.955Z,18.33
2018-02-17T08:02:52.348Z,16.17
2018-02-17T08:05:20.253Z,17.07
2018-02-17T08:07:47.872Z,21.00
2018-02-17T08:10:15.464Z,12.53
2018-02-17T08:12:43.320Z,15.90
2018-02-17T08:15:10.932Z,18.33
2018-02-17T08:17:39.343Z,14.30
2018-02-17T08:20:07.192Z,17.10
2018-02-17T08:22:35.652Z,23.73
2018-02-17T08:25:03.261Z,14.37
2018-02-17T08:27:30.852Z,17.47
2018-02-17T08:29:58.509Z,15.53
2018-02-17T08:32:26.712Z,18.43
2018-02-17T08:34:55.128Z,14.03
2018-02-17T08:37:22.724Z,25.23
2018-02-17T08:39:50.364Z,25.87
2018-02-17T08:42:17.975Z,22.73
2018-02-17T08:44:45.573Z,24.57
2018-02-17T08:47:13.191Z,17.33
2018-02-17T08:49:40.780Z,17.90
2018-02-17T08:52:08.438Z,16.37
2018-02-17T08:54:36.797Z,22.67
2018-02-17T08:57:04.521Z,20.23
2018-02-17T08:59:32.120Z,20.80
2018-02-17T09:01:59.743Z,25.37
2018-02-17T09:04:27.354Z,21.57
2018-02-17T09:06:55.752Z,15.37
2018-02-17T09:09:23.348Z,25.00
2018-02-17T09:11:50.942Z,26.27
2018-02-17T09:14:18.563Z,17.20
2018-02-17T09:16:46.166Z,33.67
2018-02-17T09:19:13.807Z,12.53
2018-02-17T09:21:41.413Z,15.53
2018-02-17T09:24:09.052Z,19.00
2018-02-17T09:26:37.430Z,14.20
2018-02-17T09:29:06.080Z,18.47
2018-02-17T09:31:34.020Z,18.77
2018-02-17T09:34:01.622Z,13.17
2018-02-17T09:36:30.765Z,15.57
2018-02-17T09:38:58.369Z,15.13
2018-02-17T09:41:25.992Z,14.07
2018-02-17T09:43:53.605Z,15.67
2018-02-17T09:46:21.229Z,13.60
2018-02-17T09:48:48.854Z,14.67
2018-02-17T09:51:17.231Z,27.20
2018-02-17T09:53:47.761Z,20.60
2018-02-17T09:56:15.514Z,17.17
2018-02-17T09:58:43.146Z,14.47
2018-02-17T10:01:10.764Z,8.90
2018-02-17T10:03:38.788Z,19.37
2018-02-17T10:06:06.554Z,14.00
2018-02-17T10:10:55.169Z,17.50
2018-02-17T10:13:22.831Z,18.43
2018-02-17T10:15:50.548Z,15.60
2018-02-17T10:18:18.185Z,18.33
2018-02-17T10:20:46.598Z,18.03
2018-02-17T10:23:14.211Z,21.63
2018-02-17T10:25:41.847Z,11.20
2018-02-17T10:28:09.519Z,17.63
2018-02-17T10:30:37.211Z,18.50
2018-02-17T10:33:05.632Z,13.63
2018-02-17T10:35:33.498Z,16.27
2018-02-17T10:38:01.972Z,18.70
2018-02-17T10:40:29.603Z,21.53
2018-02-17T10:42:58.182Z,17.30
2018-02-17T10:45:25.938Z,14.20
2018-02-17T10:47:53.552Z,16.40
2018-02-17T10:50:21.226Z,12.93
2018-02-17T10:52:48.891Z,17.20
2018-02-17T10:55:16.660Z,14.23
2018-02-17T10:57:44.331Z,13.53
2018-02-17T11:00:11.990Z,22.37
2018-02-17T11:02:39.647Z,18.83
2018-02-17T11:05:07.298Z,15.03
2018-02-17T11:07:34.954Z,20.60
2018-02-17T11:10:02.584Z,14.53
2018-02-17T11:12:31.119Z,16.23
2018-02-17T11:14:58.799Z,17.27
2018-02-17T11:17:26.545Z,14.07
2018-02-17T11:19:54.411Z,7.83
2018-02-17T11:22:22.059Z,8.33
2018-02-17T11:24:49.706Z,4.67
2018-02-17T11:27:17.516Z,8.87
2018-02-17T11:29:45.126Z,9.13
2018-02-17T11:32:12.837Z,5.70
2018-02-17T11:34:41.301Z,8.00
2018-02-17T11:37:08.982Z,10.50
2018-02-17T11:39:36.628Z,11.53
2018-02-17T11:42:04.237Z,6.63
2018-02-17T11:44:32.677Z,10.03
2018-02-17T11:47:00.314Z,6.80
2018-02-17T11:49:27.940Z,13.90
2018-02-17T11:51:56.410Z,6.63
2018-02-17T11:54:24.808Z,11.93
2018-02-17T11:56:53.230Z,6.13
2018-02-17T11:59:20.901Z,10.80
2018-02-17T12:01:48.522Z,13.50
2018-02-17T12:04:16.176Z,10.93
2018-02-17T12:06:44.569Z,8.70
2018-02-17T12:09:12.224Z,5.43
2018-02-17T12:11:40.041Z,5.70
2018-02-17T12:14:07.700Z,11.87
2018-02-17T12:16:35.321Z,15.17
2018-02-17T12:19:02.938Z,8.30
2018-02-17T12:21:30.583Z,10.77
2018-02-17T12:23:58.287Z,14.07
2018-02-17T12:26:26.719Z,3.70
2018-02-17T12:28:54.340Z,3.70
2018-02-17T12:31:22.807Z,7.27
2018-02-17T12:33:51.218Z,8.00
2018-02-17T12:36:18.830Z,3.40
2018-02-17T12:38:47.251Z,6.53
2018-02-17T12:41:14.901Z,6.93
2018-02-17T12:43:42.573Z,7.10
2018-02-17T12:46:10.194Z,3.73
2018-02-17T12:48:37.991Z,6.97
2018-02-17T12:51:06.370Z,8.90
2018-02-17T12:53:34.797Z,5.43
2018-02-17T12:56:02.419Z,12.57
2018-02-17T12:58:30.050Z,6.60
2018-02-17T13:00:57.786Z,6.27
2018-02-17T13:03:25.446Z,9.53
2018-02-17T13:05:53.318Z,4.00
2018-02-17T13:08:20.955Z,6.73
2018-02-17T13:10:48.616Z,2.27
2018-02-17T13:13:16.244Z,7.87
2018-02-17T13:15:44.662Z,5.17
2018-02-17T13:18:12.342Z,4.13
2018-02-17T13:20:40.017Z,8.13
2018-02-17T13:23:07.769Z,6.00
2018-02-17T13:25:35.431Z,7.20
2018-02-17T13:28:03.055Z,18.50
2018-02-17T13:30:30.680Z,5.07
2018-02-17T13:32:58.319Z,5.10
2018-02-17T13:35:25.942Z,8.63
2018-02-17T13:37:53.584Z,7.57
2018-02-17T13:40:21.963Z,7.23
2018-02-17T13:42:50.371Z,5.50
2018-02-17T13:45:17.990Z,4.17
2018-02-17T13:47:46.414Z,4.70
2018-02-17T13:50:14.026Z,8.97
2018-02-17T13:52:41.637Z,6.10
2018-02-17T13:55:09.282Z,5.10
2018-02-17T13:57:36.907Z,10.30
2018-02-17T14:00:04.561Z,4.63
2018-02-17T14:02:32.210Z,19.20
2018-02-17T14:04:59.851Z,4.70
2018-02-17T14:07:27.465Z,5.63
2018-02-17T14:09:55.107Z,7.27
2018-02-17T14:12:22.720Z,6.57
2018-02-17T14:14:50.392Z,7.83
2018-02-17T14:17:18.025Z,4.60
2018-02-17T14:19:46.474Z,9.13
2018-02-17T14:22:14.102Z,7.17
2018-02-17T14:24:41.767Z,10.23
2018-02-17T14:27:09.475Z,5.43
2018-02-17T14:29:37.129Z,18.20
2018-02-17T14:32:04.771Z,8.80
2018-02-17T14:34:32.385Z,4.57
2018-02-17T14:37:00.791Z,3.33
2018-02-17T14:39:28.403Z,6.87
2018-02-17T14:41:56.056Z,10.83
2018-02-17T14:44:23.903Z,16.17
2018-02-17T14:46:51.596Z,4.17
2018-02-17T14:49:19.433Z,8.07
2018-02-17T14:51:47.111Z,8.23
2018-02-17T14:54:14.868Z,4.83
2018-02-17T14:56:42.748Z,8.03
2018-02-17T14:59:10.363Z,15.37
2018-02-17T15:01:38.261Z,5.47
2018-02-17T15:04:06.292Z,5.13
2018-02-17T15:06:34.139Z,6.10
2018-02-17T15:09:01.788Z,8.73
2018-02-17T15:11:29.441Z,4.97
2018-02-17T15:13:57.288Z,7.83
2018-02-17T15:16:24.915Z,15.53
2018-02-17T15:18:52.563Z,9.33
2018-02-17T15:21:20.252Z,6.30
2018-02-17T15:23:47.900Z,7.50
2018-02-17T15:26:15.620Z,6.00
2018-02-17T15:28:43.273Z,7.03
2018-02-17T15:31:10.900Z,4.10
2018-02-17T15:33:38.691Z,8.70
2018-02-17T15:36:06.351Z,7.20
2018-02-17T15:38:33.963Z,7.00
2018-02-17T15:41:02.370Z,5.73
2018-02-17T15:43:30.010Z,5.03
2018-02-17T15:45:57.690Z,3.67
2018-02-17T15:48:25.324Z,12.20
2018-02-17T15:50:53.771Z,9.57
2018-02-17T15:53:21.528Z,4.80
2018-02-17T15:55:49.167Z,5.50
2018-02-17T15:58:16.793Z,3.50
2018-02-17T16:00:45.226Z,3.20
2018-02-17T16:03:12.856Z,7.23
2018-02-17T16:05:40.514Z,3.00
2018-02-17T16:08:08.127Z,8.43
2018-02-17T16:10:35.779Z,2.37
2018-02-17T16:13:03.392Z,6.30
2018-02-17T16:15:31.914Z,11.23
2018-02-17T16:17:59.535Z,7.87
2018-02-17T16:20:27.946Z,7.83
2018-02-17T16:22:55.596Z,2.63
2018-02-17T16:25:23.219Z,11.37
2018-02-17T16:27:50.963Z,8.70
2018-02-17T16:30:18.611Z,9.07
2018-02-17T16:32:46.307Z,10.03
2018-02-17T16:35:13.918Z,4.43
2018-02-17T16:37:41.567Z,6.30
2018-02-17T16:40:09.230Z,4.63
2018-02-17T16:42:36.891Z,4.00
2018-02-17T16:45:04.497Z,5.13
2018-02-17T16:47:32.251Z,9.63
2018-02-17T16:49:59.864Z,7.03
2018-02-17T16:52:28.287Z,10.03
2018-02-17T16:54:55.907Z,11.10
2018-02-17T16:57:23.708Z,8.10
2018-02-17T16:59:51.359Z,6.27
2018-02-17T17:02:19.245Z,7.63
2018-02-17T17:04:46.886Z,6.63
2018-02-17T17:07:14.678Z,5.50
2018-02-17T17:09:42.537Z,5.37
2018-02-17T17:12:10.142Z,4.60
2018-02-17T17:14:38.609Z,11.97
2018-02-17T17:17:06.226Z,7.17
2018-02-17T17:19:33.883Z,7.90
2018-02-17T17:22:01.487Z,4.33
2018-02-17T17:24:29.129Z,7.37
2018-02-17T17:26:56.788Z,4.80
2018-02-17T17:29:24.427Z,8.13
2018-02-17T17:31:52.104Z,13.50
2018-02-17T17:34:19.721Z,9.43
2018-02-17T17:36:47.395Z,8.10
2018-02-17T17:39:15.803Z,15.03
2018-02-17T17:41:43.419Z,11.53
2018-02-17T17:44:11.933Z,12.43
2018-02-17T17:46:39.551Z,13.17
2018-02-17T17:49:07.191Z,5.70
2018-02-17T17:51:34.879Z,9.03
2018-02-17T17:54:03.097Z,7.47
2018-02-17T17:56:31.793Z,3.80
2018-02-17T17:58:59.495Z,15.83
2018-02-17T18:01:27.338Z,5.40
2018-02-17T18:03:55.171Z,5.53
2018-02-17T18:06:23.075Z,9.43
2018-02-17T18:08:50.720Z,8.97
2018-02-17T18:11:18.367Z,16.80
2018-02-17T18:13:46.359Z,4.10
2018-02-17T18:16:14.221Z,5.83
2018-02-17T18:18:42.235Z,3.80
2018-02-17T18:21:10.188Z,5.30
2018-02-17T18:23:38.459Z,6.10
2018-02-17T18:26:08.278Z,6.80
2018-02-17T18:28:38.331Z,8.80
2018-02-17T18:31:08.341Z,7.60
2018-02-17T18:33:36.380Z,7.60
2018-02-17T18:36:04.550Z,4.47
2018-02-17T18:38:33.798Z,4.70
2018-02-17T18:41:03.135Z,3.00
2018-02-17T18:43:31.136Z,4.83
2018-02-17T18:45:59.178Z,3.30
2018-02-17T18:48:27.071Z,5.60
2018-02-17T18:50:54.942Z,8.73
2018-02-17T18:53:22.774Z,3.40
2018-02-17T18:55:50.463Z,12.00
2018-02-17T18:58:18.214Z,9.97
2018-02-17T19:00:45.830Z,13.30
2018-02-17T19:03:14.242Z,3.90
2018-02-17T19:05:41.865Z,8.23
2018-02-17T19:08:10.274Z,6.20
2018-02-17T19:10:37.923Z,7.40
2018-02-17T19:13:05.578Z,5.23
2018-02-17T19:15:33.952Z,3.83
2018-02-17T19:18:02.381Z,6.27
2018-02-17T19:20:30.063Z,9.53
2018-02-17T19:22:57.681Z,12.40
2018-02-17T19:25:33.073Z,8.13
2018-02-17T19:28:00.930Z,16.13
2018-02-17T19:30:28.906Z,11.60
2018-02-17T19:32:56.769Z,11.50
2018-02-17T19:35:24.747Z,7.47
2018-02-17T19:37:52.575Z,11.03
2018-02-17T19:40:20.471Z,63.43
2018-02-17T19:42:48.440Z,26.40
2018-02-17T19:45:16.315Z,13.53
2018-02-17T19:47:47.246Z,25.73
2018-02-17T19:50:15.120Z,21.50
2018-02-17T19:52:42.988Z,13.07
2018-02-17T19:55:10.846Z,8.73
2018-02-17T19:57:38.919Z,11.77
2018-02-17T20:00:06.787Z,6.33
2018-02-17T20:02:34.654Z,8.47
2018-02-17T20:05:02.525Z,10.00
2018-02-17T20:07:30.491Z,4.43
2018-02-17T20:09:58.359Z,7.67
2018-02-17T20:12:26.226Z,7.60
2018-02-17T20:14:54.196Z,5.30
2018-02-17T20:17:22.024Z,8.57
2018-02-17T20:19:49.936Z,9.90
2018-02-17T20:22:17.800Z,5.03
2018-02-17T20:24:45.762Z,7.70
2018-02-17T20:27:13.637Z,3.67
2018-02-17T20:29:41.569Z,6.73
2018-02-17T20:32:09.491Z,5.93
2018-02-17T20:34:38.159Z,3.90
2018-02-17T20:37:05.988Z,13.83
2018-02-17T20:39:33.888Z,5.57
2018-02-17T20:42:01.762Z,4.97
2018-02-17T20:44:30.930Z,6.23
2018-02-17T20:46:58.825Z,16.10
2018-02-17T20:49:26.698Z,8.47
2018-02-17T20:51:54.668Z,6.90
2018-02-17T20:54:22.636Z,7.13
2018-02-17T20:56:50.503Z,9.17
2018-02-17T20:59:19.172Z,11.93
2018-02-17T21:01:47.895Z,7.20
2018-02-17T21:04:17.637Z,6.00
2018-02-17T21:06:46.401Z,6.10
2018-02-17T21:09:15.268Z,7.57
2018-02-17T21:11:43.128Z,7.67
2018-02-17T21:14:11.077Z,7.97
2018-02-17T21:16:38.969Z,7.00
2018-02-17T21:19:06.932Z,17.93
2018-02-17T21:21:34.802Z,16.30
2018-02-17T21:24:03.381Z,18.27
2018-02-17T21:26:31.260Z,15.67
2018-02-17T21:28:59.127Z,15.30
2018-02-17T21:31:27.098Z,21.80
2018-02-17T21:33:54.961Z,18.07
2018-02-17T21:36:22.932Z,26.10
2018-02-17T21:38:50.791Z,25.33
2018-02-17T21:41:18.673Z,20.67
2018-02-17T21:43:46.532Z,22.93
2018-02-17T21:46:14.409Z,25.17
2018-02-17T21:48:42.272Z,18.20
2018-02-17T21:51:10.145Z,25.70
2018-02-17T21:53:38.109Z,20.70
2018-02-17T21:56:20.507Z,19.77
2018-02-17T21:58:48.483Z,26.73
2018-02-17T22:04:13.807Z,27.33
2018-02-17T22:06:41.498Z,20.47
2018-02-17T22:09:09.895Z,25.23
2018-02-17T22:11:37.658Z,29.20
2018-02-17T22:14:05.285Z,27.53
2018-02-17T22:16:33.021Z,30.33
2018-02-17T22:19:00.643Z,31.17
2018-02-17T22:21:28.302Z,28.87
2018-02-17T22:23:56.691Z,22.10
2018-02-17T22:26:24.400Z,24.90
2018-02-17T22:28:52.027Z,28.90
2018-02-17T22:31:19.903Z,20.87
2018-02-17T22:33:47.552Z,21.57
2018-02-17T22:36:15.252Z,21.40
2018-02-17T22:38:42.908Z,15.73
2018-02-17T22:41:10.560Z,27.27
2018-02-17T22:43:38.226Z,33.07
2018-02-17T22:46:05.843Z,28.17
2018-02-17T22:48:34.261Z,35.13
2018-02-17T22:51:01.955Z,30.33
2018-02-17T22:53:31.082Z,30.13
2018-02-17T22:55:59.530Z,30.60
2018-02-17T22:58:27.294Z,21.30
2018-02-17T23:00:54.942Z,27.10
2018-02-17T23:03:22.563Z,24.23
2018-02-17T23:05:50.189Z,20.47
2018-02-17T23:08:19.360Z,28.10
2018-02-17T23:10:46.978Z,22.73
2018-02-17T23:13:15.403Z,24.80
2018-02-17T23:15:43.174Z,20.00
2018-02-17T23:18:10.790Z,26.10
2018-02-17T23:20:38.588Z,23.47
2018-02-17T23:23:06.204Z,23.70
2018-02-17T23:25:34.632Z,19.63
2018-02-17T23:28:02.254Z,27.03
2018-02-17T23:30:29.877Z,16.00
2018-02-17T23:32:57.537Z,18.17
2018-02-17T23:35:25.923Z,19.17
2018-02-17T23:37:53.569Z,11.33
2018-02-17T23:40:21.184Z,18.00
2018-02-17T23:42:48.798Z,12.23
2018-02-17T23:45:16.455Z,14.27
2018-02-17T23:47:44.067Z,13.70
2018-02-17T23:50:11.719Z,13.37
2018-02-17T23:52:40.099Z,13.80
2018-02-17T23:55:08.527Z,15.73
2018-02-17T23:57:37.020Z,17.53
